Time;durP1;ratioP1;P1;durP2;ratioP2;P2;SDS_P1;SDS_P2;PMS_P1;PMS_P2;Temp;Humidity;BMP_temperature;BMP_pressure;BME280_temperature;BME280_humidity;BME280_pressure;Samples;Min_cycle;Max_cycle;Signal;HPM_P1;HPM_P2
2022/12/16 00:01:52;;;;;;;94.13;73.90;;;-1.40;99.90;;;;;;5041325;28;20411;-81
2022/12/16 00:04:17;;;;;;;94.72;74.70;;;-1.40;99.90;;;;;;5048831;28;20410;-81
2022/12/16 00:06:43;;;;;;;92.20;73.97;;;-1.40;99.90;;;;;;5064339;28;20040;-81
2022/12/16 00:09:08;;;;;;;100.45;77.93;;;-1.40;99.90;;;;;;5041233;28;20401;-81
2022/12/16 00:11:34;;;;;;;65.78;38.40;;;-1.40;99.90;;;;;;5048474;28;20089;-82
2022/12/16 00:14:00;;;;;;;98.05;79.47;;;-1.30;99.90;;;;;;5058322;28;20826;-80
2022/12/16 00:16:25;;;;;;;100.45;80.07;;;-1.30;99.90;;;;;;5047147;28;20036;-81
2022/12/16 00:18:51;;;;;;;70.30;39.38;;;-1.30;99.90;;;;;;5041608;28;20040;-81
2022/12/16 00:21:19;;;;;;;96.07;75.63;;;-1.20;99.90;;;;;;5054483;28;20027;-81
2022/12/16 00:23:45;;;;;;;90.68;74.63;;;-1.20;99.90;;;;;;5042529;28;20040;-81
2022/12/16 00:26:11;;;;;;;98.57;76.70;;;-1.20;99.90;;;;;;5063789;28;20036;-81
2022/12/16 00:28:38;;;;;;;96.07;74.63;;;-1.10;99.90;;;;;;5047919;28;20033;-81
2022/12/16 00:31:04;;;;;;;67.95;37.13;;;-1.10;99.90;;;;;;5041535;28;20432;-80
2022/12/16 00:33:30;;;;;;;69.90;37.20;;;-1.10;99.90;;;;;;5049584;28;20036;-81
2022/12/16 00:35:56;;;;;;;96.05;74.20;;;-1.10;99.90;;;;;;5064001;28;20035;-81
2022/12/16 00:38:24;;;;;;;95.80;72.20;;;-1.00;99.90;;;;;;5041556;28;20052;-81
2022/12/16 00:40:50;;;;;;;90.43;71.47;;;-1.00;99.90;;;;;;5041111;28;20039;-81
2022/12/16 00:43:15;;;;;;;95.22;73.30;;;-1.00;99.90;;;;;;5047544;28;20480;-81
2022/12/16 00:45:41;;;;;;;97.30;72.55;;;-1.00;99.90;;;;;;5073519;28;20686;-81
2022/12/16 00:48:07;;;;;;;92.95;71.20;;;-1.00;99.90;;;;;;5050864;28;20028;-81
2022/12/16 00:50:33;;;;;;;95.47;71.65;;;-0.90;99.90;;;;;;5034144;28;20442;-81
2022/12/16 00:52:59;;;;;;;94.13;73.38;;;-0.90;99.90;;;;;;5042554;28;20044;-81
2022/12/16 00:55:25;;;;;;;91.72;71.95;;;-0.90;99.90;;;;;;5057058;28;20032;-82
2022/12/16 00:57:50;;;;;;;90.60;69.68;;;-0.90;99.90;;;;;;5042131;28;20067;-81
2022/12/16 01:00:17;;;;;;;88.00;69.97;;;-0.90;99.90;;;;;;5041897;28;20110;-81
2022/12/16 01:02:46;;;;;;;87.50;69.32;;;-0.90;99.90;;;;;;5042472;28;20043;-81
2022/12/16 01:05:14;;;;;;;83.28;65.38;;;-0.90;99.90;;;;;;5050827;28;20053;-81
2022/12/16 01:07:40;;;;;;;88.07;67.80;;;-0.90;99.90;;;;;;5040782;28;20317;-81
2022/12/16 01:10:07;;;;;;;81.50;63.45;;;-0.80;99.90;;;;;;5059534;28;20040;-81
2022/12/16 01:12:34;;;;;;;89.40;69.32;;;-0.80;99.90;;;;;;5042961;28;20048;-82
2022/12/16 01:15:00;;;;;;;85.28;66.70;;;-0.80;99.90;;;;;;5069206;28;20037;-81
2022/12/16 01:17:26;;;;;;;89.47;69.05;;;-0.80;99.90;;;;;;5071328;28;20039;-81
2022/12/16 01:19:52;;;;;;;84.35;67.55;;;-0.80;99.90;;;;;;5043682;28;20119;-81
2022/12/16 01:22:18;;;;;;;90.13;68.82;;;-0.80;99.90;;;;;;5044361;28;20032;-81
2022/12/16 01:24:44;;;;;;;94.68;70.25;;;-0.80;99.90;;;;;;5058737;28;20106;-81
2022/12/16 01:27:10;;;;;;;86.38;65.93;;;-0.80;99.90;;;;;;5058193;28;20481;-81
2022/12/16 01:29:36;;;;;;;84.30;67.85;;;-0.80;99.90;;;;;;5039973;28;21202;-81
2022/12/16 01:32:02;;;;;;;90.50;70.10;;;-0.70;99.90;;;;;;5057058;28;20102;-81
2022/12/16 01:34:27;;;;;;;85.13;67.85;;;-0.70;99.90;;;;;;5048883;28;20074;-81
2022/12/16 01:36:53;;;;;;;89.68;68.55;;;-0.80;99.90;;;;;;5039546;28;20033;-84
2022/12/16 01:39:18;;;;;;;86.68;69.18;;;-0.80;99.90;;;;;;5037854;28;20394;-81
2022/12/16 01:41:44;;;;;;;82.55;65.55;;;-0.70;99.90;;;;;;5055482;28;20056;-81
2022/12/16 01:44:25;;;;;;;89.72;68.20;;;-0.70;99.90;;;;;;5046298;28;20608;-81
2022/12/16 01:46:56;;;;;;;90.53;69.72;;;-0.70;99.90;;;;;;5037113;28;20079;-81
2022/12/16 01:49:44;;;;;;;90.55;66.78;;;-0.70;99.90;;;;;;5039366;28;20512;-81
2022/12/16 01:52:17;;;;;;;82.57;65.90;;;-0.70;99.90;;;;;;5062174;28;20039;-81
2022/12/16 01:54:52;;;;;;;86.18;65.30;;;-0.70;99.90;;;;;;5050176;28;20093;-81
2022/12/16 01:57:25;;;;;;;77.82;65.25;;;-0.70;99.90;;;;;;5036939;28;20043;-81
2022/12/16 01:59:53;;;;;;;80.47;63.97;;;-0.70;99.90;;;;;;5065914;28;20028;-82
2022/12/16 02:02:20;;;;;;;79.28;64.85;;;-0.70;99.90;;;;;;5054153;28;20036;-81
2022/12/16 02:07:51;;;;;;;75.20;62.08;;;-0.80;99.90;;;;;;5015311;28;20079;-81
2022/12/16 02:10:18;;;;;;;81.88;65.43;;;-0.70;99.90;;;;;;5072491;28;20627;-81
2022/12/16 02:13:20;;;;;;;91.43;67.95;;;-0.70;99.90;;;;;;5054743;28;20391;-81
2022/12/16 02:15:56;;;;;;;84.63;65.33;;;-0.70;99.90;;;;;;5041293;28;20406;-82
2022/12/16 02:19:09;;;;;;;84.65;66.07;;;-0.70;99.90;;;;;;5057012;28;20052;-82
2022/12/16 02:22:03;;;;;;;77.30;65.13;;;-0.70;99.90;;;;;;5041642;28;20435;-81
2022/12/16 02:25:09;;;;;;;78.15;63.28;;;-0.70;99.90;;;;;;5042416;28;20043;-81
2022/12/16 02:27:43;;;;;;;83.88;65.57;;;-0.70;99.90;;;;;;5033467;28;20056;-81
2022/12/16 02:30:24;;;;;;;83.75;64.45;;;-0.70;99.90;;;;;;5049749;28;20036;-81
2022/12/16 02:32:55;;;;;;;85.72;68.20;;;-0.70;99.90;;;;;;5078694;28;20040;-81
2022/12/16 02:35:52;;;;;;;81.57;64.18;;;-0.70;99.90;;;;;;5076009;28;20058;-81
2022/12/16 02:38:17;;;;;;;75.60;62.92;;;-0.70;99.90;;;;;;5057895;28;20123;-81
2022/12/16 02:40:49;;;;;;;80.95;65.10;;;-0.70;99.90;;;;;;5069539;28;20059;-82
2022/12/16 02:43:45;;;;;;;88.85;66.90;;;-0.70;99.90;;;;;;5042383;28;20508;-82
2022/12/16 02:46:11;;;;;;;77.95;61.53;;;-0.70;99.90;;;;;;5041187;28;20487;-81
2022/12/16 02:48:36;;;;;;;79.25;64.43;;;-0.70;99.90;;;;;;5040717;28;20040;-81
2022/12/16 02:51:02;;;;;;;86.03;66.55;;;-0.70;99.90;;;;;;5055379;28;20055;-81
2022/12/16 02:53:30;;;;;;;81.55;66.20;;;-0.70;99.90;;;;;;5061810;28;20043;-82
2022/12/16 02:56:10;;;;;;;91.72;68.22;;;-0.70;99.90;;;;;;5054815;28;20056;-81
2022/12/16 02:59:07;;;;;;;81.43;64.90;;;-0.70;99.90;;;;;;5059240;28;20071;-81
2022/12/16 03:01:32;;;;;;;76.10;64.00;;;-0.70;99.90;;;;;;5054734;28;20191;-81
2022/12/16 03:04:07;;;;;;;78.65;64.35;;;-0.70;99.90;;;;;;5065803;28;20102;-81
2022/12/16 03:06:35;;;;;;;75.00;62.42;;;-0.60;99.90;;;;;;5041985;28;20052;-81
2022/12/16 03:09:05;;;;;;;79.43;63.28;;;-0.70;99.90;;;;;;5047595;28;20036;-81
2022/12/16 03:11:32;;;;;;;85.90;66.40;;;-0.60;99.90;;;;;;5044500;28;20043;-81
2022/12/16 03:14:00;;;;;;;89.30;67.18;;;-0.70;99.90;;;;;;5056001;28;20059;-83
2022/12/16 03:16:29;;;;;;;85.30;66.55;;;-0.60;99.90;;;;;;5051106;28;20111;-82
2022/12/16 03:19:00;;;;;;;87.28;65.72;;;-0.60;99.90;;;;;;5043102;28;20343;-81
2022/12/16 03:21:30;;;;;;;79.13;64.95;;;-0.70;99.90;;;;;;5056921;28;20050;-81
2022/12/16 03:24:09;;;;;;;83.32;66.30;;;-0.70;99.90;;;;;;5064823;28;20394;-82
2022/12/16 03:26:39;;;;;;;83.45;65.78;;;-0.60;99.90;;;;;;5052381;28;20036;-81
2022/12/16 03:29:13;;;;;;;84.78;65.43;;;-0.70;99.90;;;;;;5050351;28;20055;-82
2022/12/16 03:31:48;;;;;;;90.70;68.47;;;-0.70;99.90;;;;;;5057892;28;20036;-81
2022/12/16 03:34:24;;;;;;;89.95;67.75;;;-0.60;99.90;;;;;;5076160;28;20047;-82
2022/12/16 03:36:54;;;;;;;83.93;66.13;;;-0.60;99.90;;;;;;5047164;28;20101;-81
2022/12/16 03:39:22;;;;;;;85.32;64.75;;;-0.70;99.90;;;;;;5047354;28;20031;-82
2022/12/16 03:41:53;;;;;;;84.68;66.95;;;-0.60;99.90;;;;;;5060436;28;20062;-82
2022/12/16 03:44:21;;;;;;;78.20;63.95;;;-0.60;99.90;;;;;;5065219;28;20058;-81
2022/12/16 03:46:48;;;;;;;80.78;63.22;;;-0.60;99.90;;;;;;5029604;28;20079;-81
2022/12/16 03:49:13;;;;;;;80.03;64.97;;;-0.60;99.90;;;;;;5045131;28;20047;-81
2022/12/16 03:51:39;;;;;;;79.22;62.22;;;-0.60;99.90;;;;;;5069076;28;20040;-81
2022/12/16 03:54:04;;;;;;;82.40;65.30;;;-0.60;99.90;;;;;;5045921;28;20044;-81
2022/12/16 03:56:31;;;;;;;85.20;65.70;;;-0.60;99.90;;;;;;5055321;28;20401;-81
2022/12/16 03:58:57;;;;;;;89.53;66.13;;;-0.60;99.90;;;;;;5061066;28;20115;-81
2022/12/16 04:01:22;;;;;;;89.82;65.68;;;-0.60;99.90;;;;;;5052402;28;20521;-81
2022/12/16 04:03:48;;;;;;;88.13;66.13;;;-0.70;99.90;;;;;;5037573;28;20037;-81
2022/12/16 04:06:17;;;;;;;84.20;64.97;;;-0.70;99.90;;;;;;5059350;22;20049;-74
2022/12/16 04:08:45;;;;;;;80.93;64.25;;;-0.70;99.90;;;;;;5035306;28;20041;-75
2022/12/16 04:25:12;;;;;;;80.28;61.80;;;-0.60;99.90;;;;;;5048532;28;20422;-75
2022/12/16 04:27:38;;;;;;;84.18;63.15;;;-0.70;99.90;;;;;;5021991;28;20033;-74
2022/12/16 04:30:20;;;;;;;75.97;59.45;;;-0.70;99.90;;;;;;5038743;28;20038;-74
